sensor_id;sensor_type;location;lat;lon;timestamp;pressure;altitude;pressure_sealevel;temperature;humidity
21504;BME280;10913;51.992;9.228;2023-11-21T00:01:58;99726.16;;;8.26;100.00
21504;BME280;10913;51.992;9.228;2023-11-21T00:04:24;99720.91;;;8.26;100.00
21504;BME280;10913;51.992;9.228;2023-11-21T00:06:49;99727.06;;;8.25;100.00
21504;BME280;10913;51.992;9.228;2023-11-21T00:09:14;99728.81;;;8.26;100.00
21504;BME280;10913;51.992;9.228;2023-11-21T00:11:41;99729.66;;;8.28;100.00
21504;BME280;10913;51.992;9.228;2023-11-21T00:14:06;99729.66;;;8.29;100.00
21504;BME280;10913;51.992;9.228;2023-11-21T00:16:33;99729.66;;;8.31;100.00
21504;BME280;10913;51.992;9.228;2023-11-21T00:18:59;99730.56;;;8.33;100.00
21504;BME280;10913;51.992;9.228;2023-11-21T00:21:24;99733.19;;;8.33;100.00
21504;BME280;10913;51.992;9.228;2023-11-21T00:23:49;99729.69;;;8.33;100.00
21504;BME280;10913;51.992;9.228;2023-11-21T00:26:15;99732.31;;;8.34;100.00
21504;BME280;10913;51.992;9.228;2023-11-21T00:28:40;99732.31;;;8.34;100.00
21504;BME280;10913;51.992;9.228;2023-11-21T00:31:05;99729.69;;;8.33;100.00
21504;BME280;10913;51.992;9.228;2023-11-21T00:33:31;99727.91;;;8.33;100.00
21504;BME280;10913;51.992;9.228;2023-11-21T00:35:57;99727.91;;;8.33;100.00
21504;BME280;10913;51.992;9.228;2023-11-21T00:38:22;99739.31;;;8.34;100.00
21504;BME280;10913;51.992;9.228;2023-11-21T00:40:47;99740.19;;;8.34;100.00
21504;BME280;10913;51.992;9.228;2023-11-21T00:43:13;99730.56;;;8.33;100.00
21504;BME280;10913;51.992;9.228;2023-11-21T00:45:38;99749.84;;;8.34;100.00
21504;BME280;10913;51.992;9.228;2023-11-21T00:48:05;99746.34;;;8.35;100.00
21504;BME280;10913;51.992;9.228;2023-11-21T00:50:30;99740.19;;;8.34;100.00
21504;BME280;10913;51.992;9.228;2023-11-21T00:52:56;99750.72;;;8.33;100.00
21504;BME280;10913;51.992;9.228;2023-11-21T00:55:22;99757.75;;;8.32;100.00
21504;BME280;10913;51.992;9.228;2023-11-21T00:57:47;99740.22;;;8.33;100.00
21504;BME280;10913;51.992;9.228;2023-11-21T01:00:13;99753.38;;;8.33;100.00
21504;BME280;10913;51.992;9.228;2023-11-21T01:02:42;99757.75;;;8.32;100.00
21504;BME280;10913;51.992;9.228;2023-11-21T01:05:09;99748.97;;;8.33;100.00
21504;BME280;10913;51.992;9.228;2023-11-21T01:07:36;99756.88;;;8.35;100.00
21504;BME280;10913;51.992;9.228;2023-11-21T01:10:02;99766.50;;;8.37;100.00
21504;BME280;10913;51.992;9.228;2023-11-21T01:12:28;99765.63;;;8.38;100.00
21504;BME280;10913;51.992;9.228;2023-11-21T01:14:53;99769.09;;;8.40;100.00
21504;BME280;10913;51.992;9.228;2023-11-21T01:17:19;99765.56;;;8.41;100.00
21504;BME280;10913;51.992;9.228;2023-11-21T01:19:44;99773.47;;;8.41;100.00
21504;BME280;10913;51.992;9.228;2023-11-21T01:22:10;99772.59;;;8.41;100.00
21504;BME280;10913;51.992;9.228;2023-11-21T01:24:37;99772.59;;;8.41;100.00
21504;BME280;10913;51.992;9.228;2023-11-21T01:27:02;99776.09;;;8.40;100.00
21504;BME280;10913;51.992;9.228;2023-11-21T01:29:29;99779.63;;;8.40;100.00
21504;BME280;10913;51.992;9.228;2023-11-21T01:31:55;99784.00;;;8.41;100.00
21504;BME280;10913;51.992;9.228;2023-11-21T01:34:20;99785.75;;;8.42;100.00
21504;BME280;10913;51.992;9.228;2023-11-21T01:36:46;99788.38;;;8.45;100.00
21504;BME280;10913;51.992;9.228;2023-11-21T01:39:12;99789.25;;;8.44;100.00
21504;BME280;10913;51.992;9.228;2023-11-21T01:41:40;99778.72;;;8.44;100.00
21504;BME280;10913;51.992;9.228;2023-11-21T01:44:05;99790.13;;;8.46;100.00
21504;BME280;10913;51.992;9.228;2023-11-21T01:46:34;99782.22;;;8.46;100.00
21504;BME280;10913;51.992;9.228;2023-11-21T01:49:00;99791.88;;;8.46;100.00
21504;BME280;10913;51.992;9.228;2023-11-21T01:51:25;99781.34;;;8.46;100.00
21504;BME280;10913;51.992;9.228;2023-11-21T01:53:51;99785.72;;;8.47;100.00
21504;BME280;10913;51.992;9.228;2023-11-21T01:56:18;99790.09;;;8.49;100.00
21504;BME280;10913;51.992;9.228;2023-11-21T01:58:43;99790.97;;;8.51;100.00
21504;BME280;10913;51.992;9.228;2023-11-21T02:01:09;99789.22;;;8.50;100.00
21504;BME280;10913;51.992;9.228;2023-11-21T02:03:35;99788.31;;;8.53;100.00
21504;BME280;10913;51.992;9.228;2023-11-21T02:06:01;99787.44;;;8.52;100.00
21504;BME280;10913;51.992;9.228;2023-11-21T02:08:26;99790.97;;;8.51;100.00
21504;BME280;10913;51.992;9.228;2023-11-21T02:10:52;99785.69;;;8.51;100.00
21504;BME280;10913;51.992;9.228;2023-11-21T02:13:17;99792.72;;;8.52;100.00
21504;BME280;10913;51.992;9.228;2023-11-21T02:15:43;99785.69;;;8.53;100.00
21504;BME280;10913;51.992;9.228;2023-11-21T02:18:08;99794.47;;;8.53;100.00
21504;BME280;10913;51.992;9.228;2023-11-21T02:20:36;99794.44;;;8.56;100.00
21504;BME280;10913;51.992;9.228;2023-11-21T02:23:04;99792.69;;;8.55;100.00
21504;BME280;10913;51.992;9.228;2023-11-21T02:25:31;99796.22;;;8.54;100.00
21504;BME280;10913;51.992;9.228;2023-11-21T02:27:58;99797.97;;;8.52;100.00
21504;BME280;10913;51.992;9.228;2023-11-21T02:30:24;99804.13;;;8.53;100.00
21504;BME280;10913;51.992;9.228;2023-11-21T02:32:53;99800.63;;;8.52;100.00
21504;BME280;10913;51.992;9.228;2023-11-21T02:35:19;99793.59;;;8.53;100.00
21504;BME280;10913;51.992;9.228;2023-11-21T02:37:46;99797.97;;;8.52;100.00
21504;BME280;10913;51.992;9.228;2023-11-21T02:40:12;99798.84;;;8.53;100.00
21504;BME280;10913;51.992;9.228;2023-11-21T02:42:39;99797.97;;;8.52;100.00
21504;BME280;10913;51.992;9.228;2023-11-21T02:45:06;99792.72;;;8.52;100.00
21504;BME280;10913;51.992;9.228;2023-11-21T02:47:31;99791.84;;;8.53;100.00
21504;BME280;10913;51.992;9.228;2023-11-21T02:49:56;99798.84;;;8.53;100.00
21504;BME280;10913;51.992;9.228;2023-11-21T02:52:22;99805.00;;;8.53;100.00
21504;BME280;10913;51.992;9.228;2023-11-21T02:54:47;99814.66;;;8.54;100.00
21504;BME280;10913;51.992;9.228;2023-11-21T02:57:12;99812.88;;;8.56;100.00
21504;BME280;10913;51.992;9.228;2023-11-21T02:59:38;99809.38;;;8.57;100.00
21504;BME280;10913;51.992;9.228;2023-11-21T03:02:04;99808.47;;;8.58;100.00
21504;BME280;10913;51.992;9.228;2023-11-21T03:04:29;99813.75;;;8.58;100.00
21504;BME280;10913;51.992;9.228;2023-11-21T03:06:57;99822.53;;;8.57;100.00
21504;BME280;10913;51.992;9.228;2023-11-21T03:09:23;99824.28;;;8.58;100.00
21504;BME280;10913;51.992;9.228;2023-11-21T03:11:48;99821.66;;;8.58;100.00
21504;BME280;10913;51.992;9.228;2023-11-21T03:14:13;99825.16;;;8.59;100.00
21504;BME280;10913;51.992;9.228;2023-11-21T03:16:39;99831.25;;;8.59;100.00
21504;BME280;10913;51.992;9.228;2023-11-21T03:19:06;99834.81;;;8.58;100.00
21504;BME280;10913;51.992;9.228;2023-11-21T03:21:33;99833.91;;;8.59;100.00
21504;BME280;10913;51.992;9.228;2023-11-21T03:23:58;99835.69;;;8.59;100.00
21504;BME280;10913;51.992;9.228;2023-11-21T03:26:25;99840.06;;;8.58;100.00
21504;BME280;10913;51.992;9.228;2023-11-21T03:28:50;99840.94;;;8.59;100.00
21504;BME280;10913;51.992;9.228;2023-11-21T03:31:18;99838.31;;;8.59;100.00
21504;BME280;10913;51.992;9.228;2023-11-21T03:33:45;99848.81;;;8.60;100.00
21504;BME280;10913;51.992;9.228;2023-11-21T03:36:11;99848.81;;;8.60;100.00
21504;BME280;10913;51.992;9.228;2023-11-21T03:38:36;99851.44;;;8.60;100.00
21504;BME280;10913;51.992;9.228;2023-11-21T03:41:02;99845.28;;;8.61;100.00
21504;BME280;10913;51.992;9.228;2023-11-21T03:43:27;99855.81;;;8.61;100.00
21504;BME280;10913;51.992;9.228;2023-11-21T03:45:52;99847.06;;;8.61;100.00
21504;BME280;10913;51.992;9.228;2023-11-21T03:48:18;99849.69;;;8.61;100.00
21504;BME280;10913;51.992;9.228;2023-11-21T03:50:43;99846.16;;;8.60;100.00
21504;BME280;10913;51.992;9.228;2023-11-21T03:53:08;99850.56;;;8.61;100.00
21504;BME280;10913;51.992;9.228;2023-11-21T03:55:34;99850.56;;;8.61;100.00
21504;BME280;10913;51.992;9.228;2023-11-21T03:57:59;99859.34;;;8.60;100.00
21504;BME280;10913;51.992;9.228;2023-11-21T04:00:25;99852.31;;;8.59;100.00
21504;BME280;10913;51.992;9.228;2023-11-21T04:02:54;99854.13;;;8.59;100.00
21504;BME280;10913;51.992;9.228;2023-11-21T04:05:20;99859.41;;;8.56;100.00
21504;BME280;10913;51.992;9.228;2023-11-21T04:07:48;99852.38;;;8.56;100.00
21504;BME280;10913;51.992;9.228;2023-11-21T04:10:14;99852.38;;;8.56;100.00
21504;BME280;10913;51.992;9.228;2023-11-21T04:12:41;99857.63;;;8.56;100.00
21504;BME280;10913;51.992;9.228;2023-11-21T04:15:06;99863.78;;;8.57;100.00
21504;BME280;10913;51.992;9.228;2023-11-21T04:17:34;99863.78;;;8.57;100.00
21504;BME280;10913;51.992;9.228;2023-11-21T04:19:59;99863.78;;;8.55;100.00
21504;BME280;10913;51.992;9.228;2023-11-21T04:22:25;99869.03;;;8.57;100.00
21504;BME280;10913;51.992;9.228;2023-11-21T04:24:50;99863.78;;;8.57;100.00
21504;BME280;10913;51.992;9.228;2023-11-21T04:27:17;99865.50;;;8.59;100.00
21504;BME280;10913;51.992;9.228;2023-11-21T04:29:45;99869.88;;;8.60;100.00
21504;BME280;10913;51.992;9.228;2023-11-21T04:32:10;99875.13;;;8.60;100.00
21504;BME280;10913;51.992;9.228;2023-11-21T04:34:36;99888.28;;;8.62;100.00
21504;BME280;10913;51.992;9.228;2023-11-21T04:37:01;99886.53;;;8.62;100.00
21504;BME280;10913;51.992;9.228;2023-11-21T04:39:28;99883.03;;;8.63;100.00
21504;BME280;10913;51.992;9.228;2023-11-21T04:41:53;99894.44;;;8.64;100.00
21504;BME280;10913;51.992;9.228;2023-11-21T04:44:18;99892.69;;;8.64;100.00
21504;BME280;10913;51.992;9.228;2023-11-21T04:46:44;99887.41;;;8.64;100.00
21504;BME280;10913;51.992;9.228;2023-11-21T04:49:09;99896.19;;;8.63;100.00
21504;BME280;10913;51.992;9.228;2023-11-21T04:51:36;99894.44;;;8.66;100.00
21504;BME280;10913;51.992;9.228;2023-11-21T04:54:01;99902.31;;;8.66;100.00
21504;BME280;10913;51.992;9.228;2023-11-21T04:56:27;99904.09;;;8.65;100.00
21504;BME280;10913;51.992;9.228;2023-11-21T04:58:53;99891.78;;;8.64;100.00
21504;BME280;10913;51.992;9.228;2023-11-21T05:01:18;99904.09;;;8.65;100.00
21504;BME280;10913;51.992;9.228;2023-11-21T05:03:44;99907.59;;;8.66;100.00
21504;BME280;10913;51.992;9.228;2023-11-21T05:06:10;99904.97;;;8.66;100.00
21504;BME280;10913;51.992;9.228;2023-11-21T05:08:35;99908.47;;;8.68;100.00
21504;BME280;10913;51.992;9.228;2023-11-21T05:11:02;99910.22;;;8.67;100.00
21504;BME280;10913;51.992;9.228;2023-11-21T05:13:27;99914.63;;;8.67;100.00
21504;BME280;10913;51.992;9.228;2023-11-21T05:15:54;99914.63;;;8.67;100.00
21504;BME280;10913;51.992;9.228;2023-11-21T05:18:20;99906.72;;;8.67;100.00
21504;BME280;10913;51.992;9.228;2023-11-21T05:20:45;99918.13;;;8.69;100.00
21504;BME280;10913;51.992;9.228;2023-11-21T05:23:12;99913.72;;;8.68;100.00
21504;BME280;10913;51.992;9.228;2023-11-21T05:25:37;99916.34;;;8.69;100.00
21504;BME280;10913;51.992;9.228;2023-11-21T05:28:03;99921.63;;;8.68;100.00
21504;BME280;10913;51.992;9.228;2023-11-21T05:30:29;99923.38;;;8.69;100.00
21504;BME280;10913;51.992;9.228;2023-11-21T05:32:54;99926.00;;;8.69;100.00
21504;BME280;10913;51.992;9.228;2023-11-21T05:35:20;99928.63;;;8.70;100.00
21504;BME280;10913;51.992;9.228;2023-11-21T05:37:46;99930.41;;;8.71;100.00
21504;BME280;10913;51.992;9.228;2023-11-21T05:40:12;99931.28;;;8.72;100.00
21504;BME280;10913;51.992;9.228;2023-11-21T05:42:39;99934.78;;;8.72;100.00
21504;BME280;10913;51.992;9.228;2023-11-21T05:45:04;99930.38;;;8.73;100.00
21504;BME280;10913;51.992;9.228;2023-11-21T05:47:41;99939.16;;;8.73;100.00
21504;BME280;10913;51.992;9.228;2023-11-21T05:50:08;99947.06;;;8.73;100.00
21504;BME280;10913;51.992;9.228;2023-11-21T05:52:41;99946.19;;;8.73;100.00
21504;BME280;10913;51.992;9.228;2023-11-21T05:55:07;99947.06;;;8.73;100.00
21504;BME280;10913;51.992;9.228;2023-11-21T05:57:37;99947.94;;;8.75;100.00
21504;BME280;10913;51.992;9.228;2023-11-21T06:00:10;99949.69;;;8.73;100.00
21504;BME280;10913;51.992;9.228;2023-11-21T06:02:41;99954.09;;;8.73;100.00
21504;BME280;10913;51.992;9.228;2023-11-21T06:05:07;99953.22;;;8.72;100.00
21504;BME280;10913;51.992;9.228;2023-11-21T06:07:33;99960.22;;;8.73;100.00
21504;BME280;10913;51.992;9.228;2023-11-21T06:09:58;99960.25;;;8.69;100.00
21504;BME280;10913;51.992;9.228;2023-11-21T06:12:24;99957.63;;;8.66;100.00
21504;BME280;10913;51.992;9.228;2023-11-21T06:14:50;99962.00;;;8.63;100.00
21504;BME280;10913;51.992;9.228;2023-11-21T06:17:16;99963.78;;;8.63;100.00
21504;BME280;10913;51.992;9.228;2023-11-21T06:19:41;99965.56;;;8.58;100.00
21504;BME280;10913;51.992;9.228;2023-11-21T06:22:07;99966.47;;;8.55;100.00
21504;BME280;10913;51.992;9.228;2023-11-21T06:24:33;99964.72;;;8.51;100.00
21504;BME280;10913;51.992;9.228;2023-11-21T06:26:59;99969.97;;;8.51;100.00
21504;BME280;10913;51.992;9.228;2023-11-21T06:29:25;99970.84;;;8.53;100.00
21504;BME280;10913;51.992;9.228;2023-11-21T06:31:50;99984.00;;;8.53;100.00
21504;BME280;10913;51.992;9.228;2023-11-21T06:34:16;99982.25;;;8.51;100.00
21504;BME280;10913;51.992;9.228;2023-11-21T06:36:41;99990.16;;;8.52;100.00
21504;BME280;10913;51.992;9.228;2023-11-21T06:39:06;99986.66;;;8.53;100.00
21504;BME280;10913;51.992;9.228;2023-11-21T06:41:33;99996.31;;;8.54;100.00
21504;BME280;10913;51.992;9.228;2023-11-21T06:43:59;99994.53;;;8.52;100.00
21504;BME280;10913;51.992;9.228;2023-11-21T06:46:24;99992.78;;;8.54;100.00
21504;BME280;10913;51.992;9.228;2023-11-21T06:48:50;100001.56;;;8.54;100.00
21504;BME280;10913;51.992;9.228;2023-11-21T06:51:15;100005.97;;;8.52;100.00
21504;BME280;10913;51.992;9.228;2023-11-21T06:53:41;100015.59;;;8.53;100.00
21504;BME280;10913;51.992;9.228;2023-11-21T06:56:15;100020.88;;;8.50;100.00
21504;BME280;10913;51.992;9.228;2023-11-21T06:58:41;100027.91;;;8.50;100.00
21504;BME280;10913;51.992;9.228;2023-11-21T07:01:06;100024.38;;;8.49;100.00
21504;BME280;10913;51.992;9.228;2023-11-21T07:03:32;100022.63;;;8.51;100.00
21504;BME280;10913;51.992;9.228;2023-11-21T07:05:57;100030.53;;;8.51;100.00
21504;BME280;10913;51.992;9.228;2023-11-21T07:08:22;100025.25;;;8.50;100.00
21504;BME280;10913;51.992;9.228;2023-11-21T07:10:48;100031.41;;;8.50;100.00
21504;BME280;10913;51.992;9.228;2023-11-21T07:13:14;100033.16;;;8.51;100.00
21504;BME280;10913;51.992;9.228;2023-11-21T07:15:40;100043.69;;;8.51;100.00
21504;BME280;10913;51.992;9.228;2023-11-21T07:18:05;100045.44;;;8.52;100.00
21504;BME280;10913;51.992;9.228;2023-11-21T07:20:33;100043.69;;;8.54;100.00
21504;BME280;10913;51.992;9.228;2023-11-21T07:22:58;100047.19;;;8.53;100.00
21504;BME280;10913;51.992;9.228;2023-11-21T07:25:24;100042.81;;;8.55;100.00
21504;BME280;10913;51.992;9.228;2023-11-21T07:27:49;100055.09;;;8.55;100.00
21504;BME280;10913;51.992;9.228;2023-11-21T07:30:15;100042.81;;;8.55;100.00
21504;BME280;10913;51.992;9.228;2023-11-21T07:32:40;100051.59;;;8.56;100.00
21504;BME280;10913;51.992;9.228;2023-11-21T07:35:06;100059.47;;;8.57;100.00
21504;BME280;10913;51.992;9.228;2023-11-21T07:37:33;100067.38;;;8.59;100.00
21504;BME280;10913;51.992;9.228;2023-11-21T07:39:58;100069.13;;;8.58;100.00
21504;BME280;10913;51.992;9.228;2023-11-21T07:42:24;100075.25;;;8.60;100.00
21504;BME280;10913;51.992;9.228;2023-11-21T07:44:51;100075.25;;;8.60;100.00
21504;BME280;10913;51.992;9.228;2023-11-21T07:47:17;100076.13;;;8.61;100.00
21504;BME280;10913;51.992;9.228;2023-11-21T07:49:42;100084.91;;;8.61;100.00
21504;BME280;10913;51.992;9.228;2023-11-21T07:52:09;100077.88;;;8.62;100.00
21504;BME280;10913;51.992;9.228;2023-11-21T07:54:35;100082.25;;;8.61;100.00
21504;BME280;10913;51.992;9.228;2023-11-21T07:57:01;100091.91;;;8.61;100.00
21504;BME280;10913;51.992;9.228;2023-11-21T07:59:27;100087.53;;;8.61;100.00
21504;BME280;10913;51.992;9.228;2023-11-21T08:01:52;100094.56;;;8.62;100.00
21504;BME280;10913;51.992;9.228;2023-11-21T08:04:17;100101.56;;;8.63;100.00
21504;BME280;10913;51.992;9.228;2023-11-21T08:06:43;100100.69;;;8.63;100.00
21504;BME280;10913;51.992;9.228;2023-11-21T08:09:09;100103.34;;;8.63;100.00
21504;BME280;10913;51.992;9.228;2023-11-21T08:11:34;100106.84;;;8.63;100.00
21504;BME280;10913;51.992;9.228;2023-11-21T08:13:59;100105.09;;;8.62;100.00
21504;BME280;10913;51.992;9.228;2023-11-21T08:16:25;100120.00;;;8.60;100.00
21504;BME280;10913;51.992;9.228;2023-11-21T08:18:50;100119.16;;;8.58;100.00
21504;BME280;10913;51.992;9.228;2023-11-21T08:21:16;100121.78;;;8.58;100.00
21504;BME280;10913;51.992;9.228;2023-11-21T08:23:41;100132.31;;;8.57;100.00
21504;BME280;10913;51.992;9.228;2023-11-21T08:26:07;100135.84;;;8.56;100.00
21504;BME280;10913;51.992;9.228;2023-11-21T08:28:34;100130.56;;;8.56;100.00
21504;BME280;10913;51.992;9.228;2023-11-21T08:31:00;100136.72;;;8.56;100.00
21504;BME280;10913;51.992;9.228;2023-11-21T08:33:26;100131.44;;;8.56;100.00
21504;BME280;10913;51.992;9.228;2023-11-21T08:35:51;100142.84;;;8.58;100.00
21504;BME280;10913;51.992;9.228;2023-11-21T08:38:16;100137.59;;;8.57;100.00
21504;BME280;10913;51.992;9.228;2023-11-21T08:40:43;100140.19;;;8.60;100.00
21504;BME280;10913;51.992;9.228;2023-11-21T08:43:08;100141.06;;;8.60;100.00
21504;BME280;10913;51.992;9.228;2023-11-21T08:45:34;100135.81;;;8.60;100.00
21504;BME280;10913;51.992;9.228;2023-11-21T08:48:02;100139.31;;;8.64;100.00
21504;BME280;10913;51.992;9.228;2023-11-21T08:50:28;100141.94;;;8.62;100.00
21504;BME280;10913;51.992;9.228;2023-11-21T08:52:53;100141.94;;;8.62;100.00
21504;BME280;10913;51.992;9.228;2023-11-21T08:55:19;100148.09;;;8.63;100.00
21504;BME280;10913;51.992;9.228;2023-11-21T08:57:45;100146.34;;;8.63;100.00
21504;BME280;10913;51.992;9.228;2023-11-21T09:00:12;100151.59;;;8.62;100.00
21504;BME280;10913;51.992;9.228;2023-11-21T09:02:41;100161.25;;;8.61;100.00
21504;BME280;10913;51.992;9.228;2023-11-21T09:05:10;100158.63;;;8.60;100.00
21504;BME280;10913;51.992;9.228;2023-11-21T09:07:37;100169.16;;;8.61;100.00
21504;BME280;10913;51.992;9.228;2023-11-21T09:10:03;100173.56;;;8.64;100.00
21504;BME280;10913;51.992;9.228;2023-11-21T09:12:29;100168.28;;;8.67;100.00
21504;BME280;10913;51.992;9.228;2023-11-21T09:14:54;100172.69;;;8.70;100.00
21504;BME280;10913;51.992;9.228;2023-11-21T09:17:20;100180.56;;;8.76;100.00
21504;BME280;10913;51.992;9.228;2023-11-21T09:19:45;100183.22;;;8.79;100.00
21504;BME280;10913;51.992;9.228;2023-11-21T09:22:15;100185.81;;;8.82;100.00
21504;BME280;10913;51.992;9.228;2023-11-21T09:24:40;100195.47;;;8.84;100.00
21504;BME280;10913;51.992;9.228;2023-11-21T09:27:06;100188.44;;;8.86;100.00
21504;BME280;10913;51.992;9.228;2023-11-21T09:29:31;100191.97;;;8.88;100.00
21504;BME280;10913;51.992;9.228;2023-11-21T09:31:57;100198.09;;;8.90;100.00
21504;BME280;10913;51.992;9.228;2023-11-21T09:34:25;100198.09;;;8.90;100.00
21504;BME280;10913;51.992;9.228;2023-11-21T09:36:50;100201.63;;;8.92;100.00
21504;BME280;10913;51.992;9.228;2023-11-21T09:39:16;100206.88;;;8.94;100.00
21504;BME280;10913;51.992;9.228;2023-11-21T09:41:46;100206.00;;;8.95;100.00
21504;BME280;10913;51.992;9.228;2023-11-21T09:44:17;100217.44;;;8.97;100.00
21504;BME280;10913;51.992;9.228;2023-11-21T09:46:47;100214.78;;;8.98;100.00
21504;BME280;10913;51.992;9.228;2023-11-21T09:49:14;100232.31;;;8.99;100.00
21504;BME280;10913;51.992;9.228;2023-11-21T09:51:43;100240.25;;;8.96;100.00
21504;BME280;10913;51.992;9.228;2023-11-21T09:54:10;100240.25;;;8.96;100.00
21504;BME280;10913;51.992;9.228;2023-11-21T09:56:37;100250.78;;;8.92;100.00
21504;BME280;10913;51.992;9.228;2023-11-21T09:59:03;100252.56;;;8.90;100.00
21504;BME280;10913;51.992;9.228;2023-11-21T10:01:33;100256.94;;;8.89;100.00
21504;BME280;10913;51.992;9.228;2023-11-21T10:04:00;100255.19;;;8.88;100.00
21504;BME280;10913;51.992;9.228;2023-11-21T10:06:26;100255.19;;;8.90;100.00
21504;BME280;10913;51.992;9.228;2023-11-21T10:08:53;100254.31;;;8.89;100.00
21504;BME280;10913;51.992;9.228;2023-11-21T10:11:19;100262.22;;;8.88;100.00
21504;BME280;10913;51.992;9.228;2023-11-21T10:13:45;100257.81;;;8.90;100.00
21504;BME280;10913;51.992;9.228;2023-11-21T10:16:14;100277.16;;;8.92;100.00
21504;BME280;10913;51.992;9.228;2023-11-21T10:18:41;100278.91;;;8.93;100.00
21504;BME280;10913;51.992;9.228;2023-11-21T10:21:07;100277.16;;;8.92;100.00
21504;BME280;10913;51.992;9.228;2023-11-21T10:23:34;100282.41;;;8.89;100.00
21504;BME280;10913;51.992;9.228;2023-11-21T10:26:00;100286.78;;;8.87;100.00
21504;BME280;10913;51.992;9.228;2023-11-21T10:28:26;100287.66;;;8.83;100.00
21504;BME280;10913;51.992;9.228;2023-11-21T10:30:51;100294.72;;;8.78;100.00
21504;BME280;10913;51.992;9.228;2023-11-21T10:33:27;100294.69;;;8.72;100.00
21504;BME280;10913;51.992;9.228;2023-11-21T10:35:52;100292.06;;;8.70;100.00
21504;BME280;10913;51.992;9.228;2023-11-21T10:38:20;100299.97;;;8.69;100.00
21504;BME280;10913;51.992;9.228;2023-11-21T10:40:49;100300.84;;;8.66;100.00
21504;BME280;10913;51.992;9.228;2023-11-21T10:43:16;100296.44;;;8.68;100.00
21504;BME280;10913;51.992;9.228;2023-11-21T10:45:42;100296.47;;;8.71;100.00
21504;BME280;10913;51.992;9.228;2023-11-21T10:48:15;100301.72;;;8.70;100.00
21504;BME280;10913;51.992;9.228;2023-11-21T10:50:41;100307.00;;;8.70;100.00
21504;BME280;10913;51.992;9.228;2023-11-21T10:53:06;100314.00;;;8.69;100.00
21504;BME280;10913;51.992;9.228;2023-11-21T10:55:33;100314.00;;;8.71;100.00
21504;BME280;10913;51.992;9.228;2023-11-21T10:58:02;100321.03;;;8.72;100.00
21504;BME280;10913;51.992;9.228;2023-11-21T11:00:29;100331.56;;;8.69;100.00
21504;BME280;10913;51.992;9.228;2023-11-21T11:02:54;100333.31;;;8.71;100.00
21504;BME280;10913;51.992;9.228;2023-11-21T11:05:25;100329.81;;;8.68;100.00
21504;BME280;10913;51.992;9.228;2023-11-21T11:08:12;100335.94;;;8.62;100.00
21504;BME280;10913;51.992;9.228;2023-11-21T11:10:38;100341.22;;;8.59;100.00
21504;BME280;10913;51.992;9.228;2023-11-21T11:13:04;100337.72;;;8.58;100.00
21504;BME280;10913;51.992;9.228;2023-11-21T11:15:29;100342.97;;;8.57;100.00
21504;BME280;10913;51.992;9.228;2023-11-21T11:17:55;100342.06;;;8.50;100.00
21504;BME280;10913;51.992;9.228;2023-11-21T11:20:34;100336.81;;;8.50;100.00
21504;BME280;10913;51.992;9.228;2023-11-21T11:28:51;100353.47;;;8.49;100.00
21504;BME280;10913;51.992;9.228;2023-11-21T11:34:29;100365.75;;;8.46;100.00
21504;BME280;10913;51.992;9.228;2023-11-21T11:37:05;100370.13;;;8.47;100.00
21504;BME280;10913;51.992;9.228;2023-11-21T11:39:42;100378.91;;;8.44;100.00
21504;BME280;10913;51.992;9.228;2023-11-21T11:42:10;100376.25;;;8.43;100.00
21504;BME280;10913;51.992;9.228;2023-11-21T11:47:19;100383.22;;;8.32;100.00
21504;BME280;10913;51.992;9.228;2023-11-21T11:55:00;100399.88;;;8.29;100.00
21504;BME280;10913;51.992;9.228;2023-11-21T11:57:29;100397.22;;;8.24;100.00
21504;BME280;10913;51.992;9.228;2023-11-21T12:00:14;100396.34;;;8.24;100.00
21504;BME280;10913;51.992;9.228;2023-11-21T12:02:45;100394.59;;;8.26;100.00
21504;BME280;10913;51.992;9.228;2023-11-21T12:05:11;100403.34;;;8.25;100.00
21504;BME280;10913;51.992;9.228;2023-11-21T12:07:54;100406.00;;;8.26;100.00
21504;BME280;10913;51.992;9.228;2023-11-21T12:10:40;100406.88;;;8.27;100.00
21504;BME280;10913;51.992;9.228;2023-11-21T12:13:06;100417.41;;;8.27;100.00
21504;BME280;10913;51.992;9.228;2023-11-21T12:15:32;100413.94;;;8.31;100.00
21504;BME280;10913;51.992;9.228;2023-11-21T12:17:58;100416.53;;;8.26;100.00
21504;BME280;10913;51.992;9.228;2023-11-21T12:20:26;100415.63;;;8.23;100.00
21504;BME280;10913;51.992;9.228;2023-11-21T12:22:52;100415.63;;;8.23;100.00
21504;BME280;10913;51.992;9.228;2023-11-21T12:25:18;100424.41;;;8.22;100.00
21504;BME280;10913;51.992;9.228;2023-11-21T12:27:45;100423.53;;;8.24;100.00
21504;BME280;10913;51.992;9.228;2023-11-21T12:30:11;100434.97;;;8.28;100.00
21504;BME280;10913;51.992;9.228;2023-11-21T12:32:42;100428.91;;;8.35;100.00
21504;BME280;10913;51.992;9.228;2023-11-21T12:35:11;100436.81;;;8.38;100.00
21504;BME280;10913;51.992;9.228;2023-11-21T12:37:37;100439.44;;;8.37;100.00
21504;BME280;10913;51.992;9.228;2023-11-21T12:40:04;100443.81;;;8.36;100.00
21504;BME280;10913;51.992;9.228;2023-11-21T12:42:30;100450.78;;;8.31;100.00
21504;BME280;10913;51.992;9.228;2023-11-21T12:47:36;100463.03;;;8.26;100.00
21504;BME280;10913;51.992;9.228;2023-11-21T12:50:02;100464.75;;;8.24;100.00
21504;BME280;10913;51.992;9.228;2023-11-21T12:52:28;100465.63;;;8.17;100.00
21504;BME280;10913;51.992;9.228;2023-11-21T12:54:53;100472.63;;;8.13;100.00
21504;BME280;10913;51.992;9.228;2023-11-21T12:57:18;100471.72;;;8.10;100.00
21504;BME280;10913;51.992;9.228;2023-11-21T12:59:45;100472.59;;;8.10;100.00
21504;BME280;10913;51.992;9.228;2023-11-21T13:02:12;100477.84;;;8.09;100.00
21504;BME280;10913;51.992;9.228;2023-11-21T13:04:39;100469.94;;;8.09;100.00
21504;BME280;10913;51.992;9.228;2023-11-21T13:07:04;100478.72;;;8.11;100.00
21504;BME280;10913;51.992;9.228;2023-11-21T13:09:38;100477.88;;;8.13;100.00
21504;BME280;10913;51.992;9.228;2023-11-21T13:12:03;100478.75;;;8.14;100.00